San Francisco International Airport
KSFO : now visible

Airfield :











YOU CAN JOIN US ON...

 
LOGIN :

Register | Disclaimer

   EN    FR    IT 

 









Legend :    VFR   Marginal VFR   IFR   Intensive IFR   Very Intensive IFR
Visi :
Ceiling :
>= 8 km
>= 3000ft
5 to 8 km
1000 to 3000 ft
1500m to 5 km
500 to 1000 ft
800 to 1500m
200 to 500 ft
< 800m
< 200 ft
Symbols :   Thunderstorms  Fog  Heavy snow  Heavy precipitations  Wind > 20 kt






- Airport Elevation : 13 ft
- IATA code : SFO


KSFO - San Francisco International

CURRENT METAR :
  • 232256Z 04003KT 10SM BKN180 OVC200 13/09 A3014 RMK AO2 SLP207 T01330094

EXPIRED METARs :
  • 232156Z 00000KT 10SM SCT180 BKN200 14/09 A3016 RMK AO2 SLP214 T01390094
  • 232056Z 04003KT 9SM SCT180 BKN200 13/09 A3018 RMK AO2 SLP221 T01280094 58021

TAF KSFO
Valid from the 23 at 21:00 until the 25 at 00:00 UTC


232100Z 2321/2424 04005KT P6SM FEW015 SCT120 BKN180
FM240100 31006KT P6SM FEW010 FEW050 BKN100
FM240800 28004KT P6SM SCT006 SCT040
FM241200 VRB03KT 6SM BR BKN006 BKN030 OVC040
FM241800 06004KT 6SM BR VCSH SCT010 SCT025 BKN040



MET'MAP, your aeronautical weather chart ! - Copyright ORBIFLY December 2007 - Disclaimer

ORBIFLY MET'MAP TEAM :

Programming & Development : Alexandra Zaïnal
Concept & original design : Baudouin d'Aumeries
Assistance for programming : Marc-Olivier Méhu
Technical & hardware support : Manuel Goepfert

Contact : metmap@orbifly.com




SOURCES & CREDITS :

   NOAA       Earth
Advisory